sensor_id;sensor_type;location;lat;lon;timestamp;P1;durP1;ratioP1;P2;durP2;ratioP2
27039;SDS011;14589;51.578;7.306;2023-02-28T00:01:02;0.00;;;0.00;;
27039;SDS011;14589;51.578;7.306;2023-02-28T00:03:27;0.00;;;0.00;;
27039;SDS011;14589;51.578;7.306;2023-02-28T00:05:53;0.00;;;0.00;;
27039;SDS011;14589;51.578;7.306;2023-02-28T00:08:18;0.00;;;0.00;;
27039;SDS011;14589;51.578;7.306;2023-02-28T00:10:43;0.00;;;0.00;;
27039;SDS011;14589;51.578;7.306;2023-02-28T00:13:09;0.00;;;0.00;;
27039;SDS011;14589;51.578;7.306;2023-02-28T00:15:34;0.00;;;0.00;;
27039;SDS011;14589;51.578;7.306;2023-02-28T00:18:01;0.00;;;0.00;;
27039;SDS011;14589;51.578;7.306;2023-02-28T00:20:27;0.00;;;0.00;;
27039;SDS011;14589;51.578;7.306;2023-02-28T00:22:55;0.00;;;0.00;;
27039;SDS011;14589;51.578;7.306;2023-02-28T00:25:22;0.00;;;0.00;;
27039;SDS011;14589;51.578;7.306;2023-02-28T00:27:48;0.00;;;0.00;;
27039;SDS011;14589;51.578;7.306;2023-02-28T00:30:15;0.00;;;0.00;;
27039;SDS011;14589;51.578;7.306;2023-02-28T00:32:45;0.00;;;0.00;;
27039;SDS011;14589;51.578;7.306;2023-02-28T00:35:11;0.00;;;0.00;;
27039;SDS011;14589;51.578;7.306;2023-02-28T00:37:39;0.00;;;0.00;;
27039;SDS011;14589;51.578;7.306;2023-02-28T00:40:05;0.00;;;0.00;;
27039;SDS011;14589;51.578;7.306;2023-02-28T00:42:31;0.00;;;0.00;;
27039;SDS011;14589;51.578;7.306;2023-02-28T00:44:57;0.00;;;0.00;;
27039;SDS011;14589;51.578;7.306;2023-02-28T00:47:23;0.00;;;0.00;;
27039;SDS011;14589;51.578;7.306;2023-02-28T00:49:48;0.00;;;0.00;;
27039;SDS011;14589;51.578;7.306;2023-02-28T00:52:13;0.00;;;0.00;;
27039;SDS011;14589;51.578;7.306;2023-02-28T00:54:39;0.00;;;0.00;;
27039;SDS011;14589;51.578;7.306;2023-02-28T00:57:06;0.00;;;0.00;;
27039;SDS011;14589;51.578;7.306;2023-02-28T00:59:31;0.00;;;0.00;;
27039;SDS011;14589;51.578;7.306;2023-02-28T01:01:57;0.00;;;0.00;;
27039;SDS011;14589;51.578;7.306;2023-02-28T01:04:22;0.00;;;0.00;;
27039;SDS011;14589;51.578;7.306;2023-02-28T01:06:48;0.00;;;0.00;;
27039;SDS011;14589;51.578;7.306;2023-02-28T01:09:13;0.00;;;0.00;;
27039;SDS011;14589;51.578;7.306;2023-02-28T01:11:40;0.00;;;0.00;;
27039;SDS011;14589;51.578;7.306;2023-02-28T01:14:11;0.00;;;0.00;;
27039;SDS011;14589;51.578;7.306;2023-02-28T01:16:37;0.00;;;0.00;;
27039;SDS011;14589;51.578;7.306;2023-02-28T01:19:03;0.00;;;0.00;;
27039;SDS011;14589;51.578;7.306;2023-02-28T01:21:28;0.00;;;0.00;;
27039;SDS011;14589;51.578;7.306;2023-02-28T01:23:56;0.00;;;0.00;;
27039;SDS011;14589;51.578;7.306;2023-02-28T01:26:22;0.00;;;0.00;;
27039;SDS011;14589;51.578;7.306;2023-02-28T01:28:48;0.00;;;0.00;;
27039;SDS011;14589;51.578;7.306;2023-02-28T01:31:14;0.00;;;0.00;;
27039;SDS011;14589;51.578;7.306;2023-02-28T01:33:40;0.00;;;0.00;;
27039;SDS011;14589;51.578;7.306;2023-02-28T01:36:07;0.00;;;0.00;;
27039;SDS011;14589;51.578;7.306;2023-02-28T01:38:35;0.00;;;0.00;;
27039;SDS011;14589;51.578;7.306;2023-02-28T01:41:01;0.00;;;0.00;;
27039;SDS011;14589;51.578;7.306;2023-02-28T01:45:54;0.00;;;0.00;;
27039;SDS011;14589;51.578;7.306;2023-02-28T01:48:40;0.00;;;0.00;;
27039;SDS011;14589;51.578;7.306;2023-02-28T01:51:13;0.00;;;0.00;;
27039;SDS011;14589;51.578;7.306;2023-02-28T01:53:44;0.00;;;0.00;;
27039;SDS011;14589;51.578;7.306;2023-02-28T01:56:12;0.00;;;0.00;;
27039;SDS011;14589;51.578;7.306;2023-02-28T01:58:49;0.00;;;0.00;;
27039;SDS011;14589;51.578;7.306;2023-02-28T02:01:15;0.00;;;0.00;;
27039;SDS011;14589;51.578;7.306;2023-02-28T02:03:48;0.00;;;0.00;;
27039;SDS011;14589;51.578;7.306;2023-02-28T02:06:20;0.00;;;0.00;;
27039;SDS011;14589;51.578;7.306;2023-02-28T02:08:47;0.00;;;0.00;;
27039;SDS011;14589;51.578;7.306;2023-02-28T02:11:13;0.00;;;0.00;;
27039;SDS011;14589;51.578;7.306;2023-02-28T02:19:36;0.00;;;0.00;;
27039;SDS011;14589;51.578;7.306;2023-02-28T02:25:18;0.00;;;0.00;;
27039;SDS011;14589;51.578;7.306;2023-02-28T02:30:49;0.00;;;0.00;;
27039;SDS011;14589;51.578;7.306;2023-02-28T02:36:23;0.00;;;0.00;;
27039;SDS011;14589;51.578;7.306;2023-02-28T02:39:02;0.00;;;0.00;;
27039;SDS011;14589;51.578;7.306;2023-02-28T02:44:33;0.00;;;0.00;;
27039;SDS011;14589;51.578;7.306;2023-02-28T02:47:01;0.00;;;0.00;;
27039;SDS011;14589;51.578;7.306;2023-02-28T02:49:30;0.00;;;0.00;;
27039;SDS011;14589;51.578;7.306;2023-02-28T02:51:58;0.00;;;0.00;;
27039;SDS011;14589;51.578;7.306;2023-02-28T02:54:35;0.00;;;0.00;;
27039;SDS011;14589;51.578;7.306;2023-02-28T02:57:05;0.00;;;0.00;;
27039;SDS011;14589;51.578;7.306;2023-02-28T02:59:35;0.00;;;0.00;;
27039;SDS011;14589;51.578;7.306;2023-02-28T03:02:02;0.00;;;0.00;;
27039;SDS011;14589;51.578;7.306;2023-02-28T03:04:34;0.00;;;0.00;;
27039;SDS011;14589;51.578;7.306;2023-02-28T03:07:03;0.00;;;0.00;;
27039;SDS011;14589;51.578;7.306;2023-02-28T03:09:32;0.00;;;0.00;;
27039;SDS011;14589;51.578;7.306;2023-02-28T03:11:58;0.00;;;0.00;;
27039;SDS011;14589;51.578;7.306;2023-02-28T03:22:42;0.00;;;0.00;;
27039;SDS011;14589;51.578;7.306;2023-02-28T03:30:49;0.00;;;0.00;;
27039;SDS011;14589;51.578;7.306;2023-02-28T03:33:23;0.00;;;0.00;;
27039;SDS011;14589;51.578;7.306;2023-02-28T03:35:53;0.00;;;0.00;;
27039;SDS011;14589;51.578;7.306;2023-02-28T03:38:22;0.00;;;0.00;;
27039;SDS011;14589;51.578;7.306;2023-02-28T03:41:05;0.00;;;0.00;;
27039;SDS011;14589;51.578;7.306;2023-02-28T03:43:32;0.00;;;0.00;;
27039;SDS011;14589;51.578;7.306;2023-02-28T03:46:00;0.00;;;0.00;;
27039;SDS011;14589;51.578;7.306;2023-02-28T03:48:29;0.00;;;0.00;;
27039;SDS011;14589;51.578;7.306;2023-02-28T03:50:57;0.00;;;0.00;;
27039;SDS011;14589;51.578;7.306;2023-02-28T03:53:37;0.00;;;0.00;;
27039;SDS011;14589;51.578;7.306;2023-02-28T03:56:06;0.00;;;0.00;;
27039;SDS011;14589;51.578;7.306;2023-02-28T04:01:07;0.00;;;0.00;;
27039;SDS011;14589;51.578;7.306;2023-02-28T04:03:35;0.00;;;0.00;;
27039;SDS011;14589;51.578;7.306;2023-02-28T04:06:01;0.00;;;0.00;;
27039;SDS011;14589;51.578;7.306;2023-02-28T04:08:27;0.00;;;0.00;;
27039;SDS011;14589;51.578;7.306;2023-02-28T04:10:54;0.00;;;0.00;;
27039;SDS011;14589;51.578;7.306;2023-02-28T04:13:23;0.00;;;0.00;;
27039;SDS011;14589;51.578;7.306;2023-02-28T04:15:48;0.00;;;0.00;;
27039;SDS011;14589;51.578;7.306;2023-02-28T04:18:14;0.00;;;0.00;;
27039;SDS011;14589;51.578;7.306;2023-02-28T04:20:39;0.00;;;0.00;;
27039;SDS011;14589;51.578;7.306;2023-02-28T04:23:04;0.00;;;0.00;;
27039;SDS011;14589;51.578;7.306;2023-02-28T04:25:30;0.00;;;0.00;;
27039;SDS011;14589;51.578;7.306;2023-02-28T04:27:55;0.00;;;0.00;;
27039;SDS011;14589;51.578;7.306;2023-02-28T04:30:20;0.00;;;0.00;;
27039;SDS011;14589;51.578;7.306;2023-02-28T04:32:46;0.00;;;0.00;;
27039;SDS011;14589;51.578;7.306;2023-02-28T04:35:11;0.00;;;0.00;;
27039;SDS011;14589;51.578;7.306;2023-02-28T04:37:40;0.00;;;0.00;;
27039;SDS011;14589;51.578;7.306;2023-02-28T04:40:13;0.00;;;0.00;;
27039;SDS011;14589;51.578;7.306;2023-02-28T04:42:38;0.00;;;0.00;;
27039;SDS011;14589;51.578;7.306;2023-02-28T04:45:04;0.00;;;0.00;;
27039;SDS011;14589;51.578;7.306;2023-02-28T04:47:30;0.00;;;0.00;;
27039;SDS011;14589;51.578;7.306;2023-02-28T04:49:56;0.00;;;0.00;;
27039;SDS011;14589;51.578;7.306;2023-02-28T04:52:22;0.00;;;0.00;;
27039;SDS011;14589;51.578;7.306;2023-02-28T04:54:48;0.00;;;0.00;;
27039;SDS011;14589;51.578;7.306;2023-02-28T04:57:14;0.00;;;0.00;;
27039;SDS011;14589;51.578;7.306;2023-02-28T04:59:39;0.00;;;0.00;;
27039;SDS011;14589;51.578;7.306;2023-02-28T05:02:04;0.00;;;0.00;;
27039;SDS011;14589;51.578;7.306;2023-02-28T05:04:32;0.00;;;0.00;;
27039;SDS011;14589;51.578;7.306;2023-02-28T05:06:59;0.00;;;0.00;;
27039;SDS011;14589;51.578;7.306;2023-02-28T05:09:25;0.00;;;0.00;;
27039;SDS011;14589;51.578;7.306;2023-02-28T05:11:51;0.00;;;0.00;;
27039;SDS011;14589;51.578;7.306;2023-02-28T05:14:16;0.00;;;0.00;;
27039;SDS011;14589;51.578;7.306;2023-02-28T05:16:42;0.00;;;0.00;;
27039;SDS011;14589;51.578;7.306;2023-02-28T05:19:07;0.00;;;0.00;;
27039;SDS011;14589;51.578;7.306;2023-02-28T05:21:34;0.00;;;0.00;;
27039;SDS011;14589;51.578;7.306;2023-02-28T05:24:02;0.00;;;0.00;;
27039;SDS011;14589;51.578;7.306;2023-02-28T05:26:29;0.00;;;0.00;;
27039;SDS011;14589;51.578;7.306;2023-02-28T05:28:55;0.00;;;0.00;;
27039;SDS011;14589;51.578;7.306;2023-02-28T05:31:21;0.00;;;0.00;;
27039;SDS011;14589;51.578;7.306;2023-02-28T05:33:47;0.00;;;0.00;;
27039;SDS011;14589;51.578;7.306;2023-02-28T05:36:13;0.00;;;0.00;;
27039;SDS011;14589;51.578;7.306;2023-02-28T05:38:38;0.00;;;0.00;;
27039;SDS011;14589;51.578;7.306;2023-02-28T05:41:10;0.00;;;0.00;;
27039;SDS011;14589;51.578;7.306;2023-02-28T05:43:36;0.00;;;0.00;;
27039;SDS011;14589;51.578;7.306;2023-02-28T05:46:05;0.00;;;0.00;;
27039;SDS011;14589;51.578;7.306;2023-02-28T05:48:32;0.00;;;0.00;;
27039;SDS011;14589;51.578;7.306;2023-02-28T05:51:01;0.00;;;0.00;;
27039;SDS011;14589;51.578;7.306;2023-02-28T05:53:27;0.00;;;0.00;;
27039;SDS011;14589;51.578;7.306;2023-02-28T05:55:53;0.00;;;0.00;;
27039;SDS011;14589;51.578;7.306;2023-02-28T05:58:18;0.00;;;0.00;;
27039;SDS011;14589;51.578;7.306;2023-02-28T06:00:44;0.00;;;0.00;;
27039;SDS011;14589;51.578;7.306;2023-02-28T06:03:09;0.00;;;0.00;;
27039;SDS011;14589;51.578;7.306;2023-02-28T06:05:34;0.00;;;0.00;;
27039;SDS011;14589;51.578;7.306;2023-02-28T06:08:00;0.00;;;0.00;;
27039;SDS011;14589;51.578;7.306;2023-02-28T06:10:26;0.00;;;0.00;;
27039;SDS011;14589;51.578;7.306;2023-02-28T06:12:51;0.00;;;0.00;;
27039;SDS011;14589;51.578;7.306;2023-02-28T06:15:16;0.00;;;0.00;;
27039;SDS011;14589;51.578;7.306;2023-02-28T06:17:42;0.00;;;0.00;;
27039;SDS011;14589;51.578;7.306;2023-02-28T06:20:09;0.00;;;0.00;;
27039;SDS011;14589;51.578;7.306;2023-02-28T06:22:37;0.00;;;0.00;;
27039;SDS011;14589;51.578;7.306;2023-02-28T06:25:04;0.00;;;0.00;;
27039;SDS011;14589;51.578;7.306;2023-02-28T06:27:30;0.00;;;0.00;;
27039;SDS011;14589;51.578;7.306;2023-02-28T06:29:56;0.00;;;0.00;;
27039;SDS011;14589;51.578;7.306;2023-02-28T06:32:22;0.00;;;0.00;;
27039;SDS011;14589;51.578;7.306;2023-02-28T06:34:47;0.00;;;0.00;;
27039;SDS011;14589;51.578;7.306;2023-02-28T06:37:13;0.00;;;0.00;;
27039;SDS011;14589;51.578;7.306;2023-02-28T06:39:38;0.00;;;0.00;;
27039;SDS011;14589;51.578;7.306;2023-02-28T06:42:04;0.00;;;0.00;;
27039;SDS011;14589;51.578;7.306;2023-02-28T06:44:30;0.00;;;0.00;;
27039;SDS011;14589;51.578;7.306;2023-02-28T06:47:00;0.00;;;0.00;;
27039;SDS011;14589;51.578;7.306;2023-02-28T06:49:28;0.00;;;0.00;;
27039;SDS011;14589;51.578;7.306;2023-02-28T06:51:55;0.00;;;0.00;;
27039;SDS011;14589;51.578;7.306;2023-02-28T06:54:20;0.00;;;0.00;;
27039;SDS011;14589;51.578;7.306;2023-02-28T06:56:45;0.00;;;0.00;;
27039;SDS011;14589;51.578;7.306;2023-02-28T06:59:14;0.00;;;0.00;;
27039;SDS011;14589;51.578;7.306;2023-02-28T07:01:39;0.00;;;0.00;;
27039;SDS011;14589;51.578;7.306;2023-02-28T07:04:05;0.00;;;0.00;;
27039;SDS011;14589;51.578;7.306;2023-02-28T07:06:31;0.00;;;0.00;;
27039;SDS011;14589;51.578;7.306;2023-02-28T07:08:56;0.00;;;0.00;;
27039;SDS011;14589;51.578;7.306;2023-02-28T07:11:23;0.00;;;0.00;;
27039;SDS011;14589;51.578;7.306;2023-02-28T07:13:50;0.00;;;0.00;;
27039;SDS011;14589;51.578;7.306;2023-02-28T07:16:17;0.00;;;0.00;;
27039;SDS011;14589;51.578;7.306;2023-02-28T07:18:42;0.00;;;0.00;;
27039;SDS011;14589;51.578;7.306;2023-02-28T07:21:08;0.00;;;0.00;;
27039;SDS011;14589;51.578;7.306;2023-02-28T07:23:34;0.00;;;0.00;;
27039;SDS011;14589;51.578;7.306;2023-02-28T07:26:02;0.00;;;0.00;;
27039;SDS011;14589;51.578;7.306;2023-02-28T07:28:30;0.10;;;0.10;;
27039;SDS011;14589;51.578;7.306;2023-02-28T07:31:02;0.00;;;0.00;;
27039;SDS011;14589;51.578;7.306;2023-02-28T07:33:29;0.00;;;0.00;;
27039;SDS011;14589;51.578;7.306;2023-02-28T07:36:05;0.00;;;0.00;;
27039;SDS011;14589;51.578;7.306;2023-02-28T07:38:37;0.10;;;0.10;;
27039;SDS011;14589;51.578;7.306;2023-02-28T07:41:02;0.10;;;0.10;;
27039;SDS011;14589;51.578;7.306;2023-02-28T07:43:33;0.10;;;0.10;;
27039;SDS011;14589;51.578;7.306;2023-02-28T07:46:06;0.10;;;0.10;;
27039;SDS011;14589;51.578;7.306;2023-02-28T07:48:34;0.10;;;0.10;;
27039;SDS011;14589;51.578;7.306;2023-02-28T07:51:00;0.10;;;0.10;;
27039;SDS011;14589;51.578;7.306;2023-02-28T07:53:27;0.10;;;0.10;;
27039;SDS011;14589;51.578;7.306;2023-02-28T07:55:54;0.10;;;0.10;;
27039;SDS011;14589;51.578;7.306;2023-02-28T07:58:23;0.10;;;0.10;;
27039;SDS011;14589;51.578;7.306;2023-02-28T08:00:49;0.00;;;0.00;;
27039;SDS011;14589;51.578;7.306;2023-02-28T08:03:16;0.00;;;0.00;;
27039;SDS011;14589;51.578;7.306;2023-02-28T08:05:42;0.10;;;0.10;;
27039;SDS011;14589;51.578;7.306;2023-02-28T08:08:08;0.10;;;0.10;;
27039;SDS011;14589;51.578;7.306;2023-02-28T08:10:36;0.10;;;0.10;;
27039;SDS011;14589;51.578;7.306;2023-02-28T08:13:02;0.10;;;0.10;;
27039;SDS011;14589;51.578;7.306;2023-02-28T08:15:27;0.10;;;0.10;;
27039;SDS011;14589;51.578;7.306;2023-02-28T08:17:53;0.10;;;0.10;;
27039;SDS011;14589;51.578;7.306;2023-02-28T08:22:50;0.20;;;0.20;;
27039;SDS011;14589;51.578;7.306;2023-02-28T08:25:16;0.15;;;0.15;;
27039;SDS011;14589;51.578;7.306;2023-02-28T08:27:41;0.20;;;0.20;;
27039;SDS011;14589;51.578;7.306;2023-02-28T08:30:07;0.10;;;0.10;;
27039;SDS011;14589;51.578;7.306;2023-02-28T08:32:35;0.10;;;0.10;;
27039;SDS011;14589;51.578;7.306;2023-02-28T08:35:00;0.20;;;0.20;;
27039;SDS011;14589;51.578;7.306;2023-02-28T08:37:26;0.20;;;0.20;;
27039;SDS011;14589;51.578;7.306;2023-02-28T08:39:52;0.10;;;0.10;;
27039;SDS011;14589;51.578;7.306;2023-02-28T08:42:17;0.20;;;0.20;;
27039;SDS011;14589;51.578;7.306;2023-02-28T08:44:43;0.20;;;0.20;;
27039;SDS011;14589;51.578;7.306;2023-02-28T08:47:08;0.20;;;0.20;;
27039;SDS011;14589;51.578;7.306;2023-02-28T08:49:33;0.20;;;0.20;;
27039;SDS011;14589;51.578;7.306;2023-02-28T08:51:59;0.20;;;0.20;;
27039;SDS011;14589;51.578;7.306;2023-02-28T08:54:24;0.10;;;0.10;;
27039;SDS011;14589;51.578;7.306;2023-02-28T08:56:50;0.20;;;0.20;;
27039;SDS011;14589;51.578;7.306;2023-02-28T08:59:18;0.20;;;0.20;;
27039;SDS011;14589;51.578;7.306;2023-02-28T09:01:43;0.20;;;0.20;;
27039;SDS011;14589;51.578;7.306;2023-02-28T09:04:09;0.20;;;0.20;;
27039;SDS011;14589;51.578;7.306;2023-02-28T09:06:35;0.20;;;0.20;;
27039;SDS011;14589;51.578;7.306;2023-02-28T09:09:01;0.20;;;0.20;;
27039;SDS011;14589;51.578;7.306;2023-02-28T09:11:28;0.20;;;0.20;;
27039;SDS011;14589;51.578;7.306;2023-02-28T09:13:53;0.20;;;0.20;;
27039;SDS011;14589;51.578;7.306;2023-02-28T09:16:20;0.20;;;0.20;;
27039;SDS011;14589;51.578;7.306;2023-02-28T09:18:46;0.20;;;0.20;;
27039;SDS011;14589;51.578;7.306;2023-02-28T09:21:14;0.20;;;0.20;;
27039;SDS011;14589;51.578;7.306;2023-02-28T09:23:41;0.20;;;0.20;;
27039;SDS011;14589;51.578;7.306;2023-02-28T09:26:08;0.20;;;0.20;;
27039;SDS011;14589;51.578;7.306;2023-02-28T09:28:59;0.20;;;0.20;;
27039;SDS011;14589;51.578;7.306;2023-02-28T09:31:26;0.30;;;0.30;;
27039;SDS011;14589;51.578;7.306;2023-02-28T09:33:55;0.30;;;0.30;;
27039;SDS011;14589;51.578;7.306;2023-02-28T09:36:22;0.20;;;0.20;;
27039;SDS011;14589;51.578;7.306;2023-02-28T09:38:48;0.20;;;0.20;;
27039;SDS011;14589;51.578;7.306;2023-02-28T09:41:20;0.20;;;0.20;;
27039;SDS011;14589;51.578;7.306;2023-02-28T09:43:52;0.20;;;0.20;;
27039;SDS011;14589;51.578;7.306;2023-02-28T09:49:05;0.20;;;0.20;;
27039;SDS011;14589;51.578;7.306;2023-02-28T09:51:56;0.20;;;0.20;;
27039;SDS011;14589;51.578;7.306;2023-02-28T09:54:24;0.20;;;0.20;;
27039;SDS011;14589;51.578;7.306;2023-02-28T09:57:01;0.20;;;0.20;;
27039;SDS011;14589;51.578;7.306;2023-02-28T09:59:37;0.20;;;0.20;;
27039;SDS011;14589;51.578;7.306;2023-02-28T10:02:13;0.30;;;0.30;;
27039;SDS011;14589;51.578;7.306;2023-02-28T10:04:46;0.20;;;0.20;;
27039;SDS011;14589;51.578;7.306;2023-02-28T10:15:55;0.28;;;0.28;;
27039;SDS011;14589;51.578;7.306;2023-02-28T10:18:25;0.30;;;0.30;;
27039;SDS011;14589;51.578;7.306;2023-02-28T10:20:53;0.25;;;0.25;;
27039;SDS011;14589;51.578;7.306;2023-02-28T10:23:28;0.22;;;0.22;;
27039;SDS011;14589;51.578;7.306;2023-02-28T10:26:01;0.20;;;0.20;;
27039;SDS011;14589;51.578;7.306;2023-02-28T10:28:33;0.20;;;0.20;;
27039;SDS011;14589;51.578;7.306;2023-02-28T10:33:46;0.20;;;0.20;;
27039;SDS011;14589;51.578;7.306;2023-02-28T10:36:15;0.20;;;0.20;;
27039;SDS011;14589;51.578;7.306;2023-02-28T10:38:47;0.30;;;0.30;;
27039;SDS011;14589;51.578;7.306;2023-02-28T10:41:15;0.20;;;0.20;;
27039;SDS011;14589;51.578;7.306;2023-02-28T10:43:43;0.28;;;0.28;;
27039;SDS011;14589;51.578;7.306;2023-02-28T10:51:15;0.20;;;0.20;;
27039;SDS011;14589;51.578;7.306;2023-02-28T10:53:45;0.20;;;0.20;;
27039;SDS011;14589;51.578;7.306;2023-02-28T10:56:19;0.22;;;0.22;;
27039;SDS011;14589;51.578;7.306;2023-02-28T10:58:54;0.20;;;0.20;;
27039;SDS011;14589;51.578;7.306;2023-02-28T11:04:19;0.20;;;0.20;;
27039;SDS011;14589;51.578;7.306;2023-02-28T11:07:02;0.20;;;0.20;;
27039;SDS011;14589;51.578;7.306;2023-02-28T11:09:41;0.20;;;0.20;;
27039;SDS011;14589;51.578;7.306;2023-02-28T11:15:23;0.20;;;0.20;;
27039;SDS011;14589;51.578;7.306;2023-02-28T11:20:26;0.20;;;0.20;;
27039;SDS011;14589;51.578;7.306;2023-02-28T11:22:54;0.20;;;0.20;;
27039;SDS011;14589;51.578;7.306;2023-02-28T11:25:33;0.20;;;0.20;;
27039;SDS011;14589;51.578;7.306;2023-02-28T11:28:01;0.20;;;0.20;;
27039;SDS011;14589;51.578;7.306;2023-02-28T11:32:57;0.20;;;0.20;;
27039;SDS011;14589;51.578;7.306;2023-02-28T11:35:27;0.20;;;0.20;;
27039;SDS011;14589;51.578;7.306;2023-02-28T11:38:11;0.20;;;0.20;;
27039;SDS011;14589;51.578;7.306;2023-02-28T11:40:43;0.20;;;0.20;;
27039;SDS011;14589;51.578;7.306;2023-02-28T11:49:54;0.20;;;0.20;;
27039;SDS011;14589;51.578;7.306;2023-02-28T11:51:49;0.13;;;0.13;;
27039;SDS011;14589;51.578;7.306;2023-02-28T12:00:06;0.10;;;0.10;;
27039;SDS011;14589;51.578;7.306;2023-02-28T12:08:26;0.20;;;0.20;;
27039;SDS011;14589;51.578;7.306;2023-02-28T12:11:13;0.20;;;0.20;;
27039;SDS011;14589;51.578;7.306;2023-02-28T12:16:53;0.10;;;0.10;;
27039;SDS011;14589;51.578;7.306;2023-02-28T12:22:25;0.20;;;0.20;;
27039;SDS011;14589;51.578;7.306;2023-02-28T12:25:00;0.28;;;0.28;;
27039;SDS011;14589;51.578;7.306;2023-02-28T12:27:38;0.20;;;0.20;;
27039;SDS011;14589;51.578;7.306;2023-02-28T12:30:08;0.20;;;0.20;;
27039;SDS011;14589;51.578;7.306;2023-02-28T12:32:56;0.20;;;0.20;;
27039;SDS011;14589;51.578;7.306;2023-02-28T12:35:32;0.20;;;0.20;;
27039;SDS011;14589;51.578;7.306;2023-02-28T12:38:04;0.20;;;0.20;;
27039;SDS011;14589;51.578;7.306;2023-02-28T12:40:52;0.20;;;0.20;;
27039;SDS011;14589;51.578;7.306;2023-02-28T12:43:20;0.20;;;0.20;;
27039;SDS011;14589;51.578;7.306;2023-02-28T12:45:53;0.30;;;0.30;;
27039;SDS011;14589;51.578;7.306;2023-02-28T12:50:50;0.20;;;0.20;;
27039;SDS011;14589;51.578;7.306;2023-02-28T12:58:47;0.20;;;0.20;;
27039;SDS011;14589;51.578;7.306;2023-02-28T13:04:07;0.20;;;0.20;;
27039;SDS011;14589;51.578;7.306;2023-02-28T13:09:53;0.30;;;0.30;;
27039;SDS011;14589;51.578;7.306;2023-02-28T13:12:20;0.28;;;0.28;;
27039;SDS011;14589;51.578;7.306;2023-02-28T13:14:47;0.20;;;0.20;;
27039;SDS011;14589;51.578;7.306;2023-02-28T13:17:18;0.20;;;0.20;;
27039;SDS011;14589;51.578;7.306;2023-02-28T13:22:39;0.20;;;0.20;;
27039;SDS011;14589;51.578;7.306;2023-02-28T13:31:15;0.20;;;0.20;;
27039;SDS011;14589;51.578;7.306;2023-02-28T13:38:44;0.20;;;0.20;;
27039;SDS011;14589;51.578;7.306;2023-02-28T13:44:01;0.10;;;0.10;;
27039;SDS011;14589;51.578;7.306;2023-02-28T13:46:27;0.20;;;0.20;;
27039;SDS011;14589;51.578;7.306;2023-02-28T13:48:53;0.10;;;0.10;;
27039;SDS011;14589;51.578;7.306;2023-02-28T13:51:30;0.10;;;0.10;;
27039;SDS011;14589;51.578;7.306;2023-02-28T13:59:50;0.10;;;0.10;;
27039;SDS011;14589;51.578;7.306;2023-02-28T14:02:47;0.10;;;0.10;;
27039;SDS011;14589;51.578;7.306;2023-02-28T14:05:38;0.10;;;0.10;;
27039;SDS011;14589;51.578;7.306;2023-02-28T14:11:02;0.10;;;0.10;;
27039;SDS011;14589;51.578;7.306;2023-02-28T14:13:45;0.10;;;0.10;;
27039;SDS011;14589;51.578;7.306;2023-02-28T14:16:25;0.10;;;0.10;;
27039;SDS011;14589;51.578;7.306;2023-02-28T14:27:03;0.10;;;0.10;;
27039;SDS011;14589;51.578;7.306;2023-02-28T14:37:42;0.10;;;0.10;;
27039;SDS011;14589;51.578;7.306;2023-02-28T14:40:16;0.10;;;0.10;;
27039;SDS011;14589;51.578;7.306;2023-02-28T14:42:46;0.10;;;0.10;;
27039;SDS011;14589;51.578;7.306;2023-02-28T14:45:17;0.10;;;0.10;;
27039;SDS011;14589;51.578;7.306;2023-02-28T14:47:46;0.10;;;0.10;;
27039;SDS011;14589;51.578;7.306;2023-02-28T14:50:19;0.10;;;0.10;;
27039;SDS011;14589;51.578;7.306;2023-02-28T14:52:47;0.10;;;0.10;;
27039;SDS011;14589;51.578;7.306;2023-02-28T14:55:18;0.10;;;0.10;;
27039;SDS011;14589;51.578;7.306;2023-02-28T14:57:55;0.10;;;0.10;;
27039;SDS011;14589;51.578;7.306;2023-02-28T15:00:29;0.10;;;0.10;;
27039;SDS011;14589;51.578;7.306;2023-02-28T15:02:56;0.10;;;0.10;;
27039;SDS011;14589;51.578;7.306;2023-02-28T15:05:30;0.10;;;0.10;;
27039;SDS011;14589;51.578;7.306;2023-02-28T15:08:01;0.10;;;0.10;;
27039;SDS011;14589;51.578;7.306;2023-02-28T15:10:32;0.10;;;0.10;;
27039;SDS011;14589;51.578;7.306;2023-02-28T15:12:59;0.10;;;0.10;;
27039;SDS011;14589;51.578;7.306;2023-02-28T15:18:18;0.10;;;0.10;;
27039;SDS011;14589;51.578;7.306;2023-02-28T15:20:45;0.10;;;0.10;;
27039;SDS011;14589;51.578;7.306;2023-02-28T15:23:11;0.10;;;0.10;;
27039;SDS011;14589;51.578;7.306;2023-02-28T15:25:37;0.10;;;0.10;;
27039;SDS011;14589;51.578;7.306;2023-02-28T15:28:02;0.10;;;0.10;;
27039;SDS011;14589;51.578;7.306;2023-02-28T15:30:29;0.10;;;0.10;;
27039;SDS011;14589;51.578;7.306;2023-02-28T15:33:15;0.10;;;0.10;;
27039;SDS011;14589;51.578;7.306;2023-02-28T15:35:43;0.10;;;0.10;;
27039;SDS011;14589;51.578;7.306;2023-02-28T15:43:46;0.10;;;0.10;;
27039;SDS011;14589;51.578;7.306;2023-02-28T15:46:12;0.10;;;0.10;;
27039;SDS011;14589;51.578;7.306;2023-02-28T15:48:49;0.10;;;0.10;;
27039;SDS011;14589;51.578;7.306;2023-02-28T15:51:21;0.10;;;0.10;;
27039;SDS011;14589;51.578;7.306;2023-02-28T15:56:28;0.10;;;0.10;;
27039;SDS011;14589;51.578;7.306;2023-02-28T15:58:56;0.13;;;0.13;;
27039;SDS011;14589;51.578;7.306;2023-02-28T16:01:27;0.10;;;0.10;;
27039;SDS011;14589;51.578;7.306;2023-02-28T16:03:56;0.10;;;0.10;;
27039;SDS011;14589;51.578;7.306;2023-02-28T16:06:26;0.10;;;0.10;;
27039;SDS011;14589;51.578;7.306;2023-02-28T16:08:55;0.10;;;0.10;;
27039;SDS011;14589;51.578;7.306;2023-02-28T16:11:21;0.10;;;0.10;;
27039;SDS011;14589;51.578;7.306;2023-02-28T16:13:47;0.10;;;0.10;;
27039;SDS011;14589;51.578;7.306;2023-02-28T16:16:15;0.10;;;0.10;;
27039;SDS011;14589;51.578;7.306;2023-02-28T16:18:50;0.10;;;0.10;;
27039;SDS011;14589;51.578;7.306;2023-02-28T16:21:16;0.10;;;0.10;;
27039;SDS011;14589;51.578;7.306;2023-02-28T16:23:41;0.10;;;0.10;;
27039;SDS011;14589;51.578;7.306;2023-02-28T16:26:06;0.10;;;0.10;;
27039;SDS011;14589;51.578;7.306;2023-02-28T16:28:33;0.10;;;0.10;;
27039;SDS011;14589;51.578;7.306;2023-02-28T16:31:01;0.10;;;0.10;;
27039;SDS011;14589;51.578;7.306;2023-02-28T16:33:30;0.10;;;0.10;;
27039;SDS011;14589;51.578;7.306;2023-02-28T16:35:56;0.10;;;0.10;;
27039;SDS011;14589;51.578;7.306;2023-02-28T16:38:22;0.10;;;0.10;;
27039;SDS011;14589;51.578;7.306;2023-02-28T16:40:50;0.10;;;0.10;;
27039;SDS011;14589;51.578;7.306;2023-02-28T16:43:17;0.10;;;0.10;;
27039;SDS011;14589;51.578;7.306;2023-02-28T16:45:44;0.10;;;0.10;;
27039;SDS011;14589;51.578;7.306;2023-02-28T16:48:14;0.08;;;0.08;;
27039;SDS011;14589;51.578;7.306;2023-02-28T16:50:41;0.10;;;0.10;;
27039;SDS011;14589;51.578;7.306;2023-02-28T16:53:07;0.10;;;0.10;;
27039;SDS011;14589;51.578;7.306;2023-02-28T16:55:33;0.10;;;0.10;;
27039;SDS011;14589;51.578;7.306;2023-02-28T16:57:59;0.10;;;0.10;;
27039;SDS011;14589;51.578;7.306;2023-02-28T17:00:26;0.10;;;0.10;;
27039;SDS011;14589;51.578;7.306;2023-02-28T17:02:52;0.10;;;0.10;;
27039;SDS011;14589;51.578;7.306;2023-02-28T17:05:18;0.10;;;0.10;;
27039;SDS011;14589;51.578;7.306;2023-02-28T17:07:44;0.10;;;0.10;;
27039;SDS011;14589;51.578;7.306;2023-02-28T17:10:15;0.10;;;0.10;;
27039;SDS011;14589;51.578;7.306;2023-02-28T17:12:40;0.10;;;0.10;;
27039;SDS011;14589;51.578;7.306;2023-02-28T17:15:06;0.10;;;0.10;;
27039;SDS011;14589;51.578;7.306;2023-02-28T17:17:32;0.10;;;0.10;;
27039;SDS011;14589;51.578;7.306;2023-02-28T17:19:58;0.10;;;0.10;;
27039;SDS011;14589;51.578;7.306;2023-02-28T17:22:24;0.00;;;0.00;;
27039;SDS011;14589;51.578;7.306;2023-02-28T17:24:51;0.10;;;0.10;;
27039;SDS011;14589;51.578;7.306;2023-02-28T17:27:20;0.10;;;0.10;;
27039;SDS011;14589;51.578;7.306;2023-02-28T17:29:45;0.10;;;0.10;;
27039;SDS011;14589;51.578;7.306;2023-02-28T17:32:12;0.10;;;0.10;;
27039;SDS011;14589;51.578;7.306;2023-02-28T17:34:38;0.10;;;0.10;;
27039;SDS011;14589;51.578;7.306;2023-02-28T17:37:15;0.10;;;0.10;;